createdAt,value
2018-05-08T00:01:58.748Z,3.30
2018-05-08T00:04:26.339Z,3.50
2018-05-08T00:06:53.890Z,3.47
2018-05-08T00:09:21.403Z,3.20
2018-05-08T00:11:49.802Z,3.07
2018-05-08T00:14:18.598Z,3.37
2018-05-08T00:16:46.254Z,3.07
2018-05-08T00:19:13.825Z,2.80
2018-05-08T00:21:41.349Z,3.03
2018-05-08T00:24:09.624Z,3.20
2018-05-08T00:26:37.882Z,2.67
2018-05-08T00:29:05.407Z,3.00
2018-05-08T00:31:32.927Z,3.00
2018-05-08T00:34:00.448Z,3.37
2018-05-08T00:36:27.962Z,2.70
2018-05-08T00:38:55.509Z,3.30
2018-05-08T00:41:23.059Z,3.30
2018-05-08T00:43:51.385Z,3.10
2018-05-08T00:46:18.902Z,3.53
2018-05-08T00:48:46.452Z,3.53
2018-05-08T00:51:14.753Z,3.60
2018-05-08T00:53:42.763Z,3.20
2018-05-08T00:56:10.291Z,3.33
2018-05-08T00:58:37.813Z,3.53
2018-05-08T01:01:06.134Z,4.27
2018-05-08T01:03:33.654Z,3.17
2018-05-08T01:06:01.255Z,3.30
2018-05-08T01:08:28.900Z,3.20
2018-05-08T01:10:56.430Z,3.17
2018-05-08T01:13:24.715Z,3.73
2018-05-08T01:15:52.245Z,3.43
2018-05-08T01:18:19.759Z,3.67
2018-05-08T01:20:47.317Z,3.80
2018-05-08T01:23:14.825Z,3.43
2018-05-08T01:25:43.125Z,5.83
2018-05-08T01:28:10.681Z,3.87
2018-05-08T01:30:38.188Z,4.00
2018-05-08T01:33:05.716Z,4.00
2018-05-08T01:35:33.243Z,3.77
2018-05-08T01:38:01.695Z,3.40
2018-05-08T01:40:29.209Z,4.10
2018-05-08T01:42:56.763Z,4.60
2018-05-08T01:45:24.290Z,4.60
2018-05-08T01:47:52.631Z,4.20
2018-05-08T01:50:20.139Z,3.93
2018-05-08T01:52:48.474Z,4.23
2018-05-08T01:55:16.111Z,4.03
2018-05-08T01:57:43.663Z,4.20
2018-05-08T02:00:11.184Z,3.87
2018-05-08T02:02:39.457Z,3.90
2018-05-08T02:05:08.865Z,3.73
2018-05-08T02:07:37.135Z,3.40
2018-05-08T02:10:06.839Z,3.47
2018-05-08T02:12:35.181Z,3.73
2018-05-08T02:15:02.756Z,3.60
2018-05-08T02:17:30.293Z,3.80
2018-05-08T02:19:57.834Z,4.43
2018-05-08T02:22:25.391Z,3.97
2018-05-08T02:24:52.919Z,4.60
2018-05-08T02:27:21.211Z,4.13
2018-05-08T02:29:49.481Z,3.83
2018-05-08T02:32:17.762Z,4.27
2018-05-08T02:34:45.314Z,4.60
2018-05-08T02:37:13.634Z,4.20
2018-05-08T02:39:41.152Z,4.00
2018-05-08T02:42:08.707Z,4.40
2018-05-08T02:44:36.990Z,4.57
2018-05-08T02:47:05.292Z,5.60
2018-05-08T02:49:32.831Z,4.67
2018-05-08T02:52:00.375Z,4.57
2018-05-08T02:54:28.686Z,4.50
2018-05-08T02:56:56.217Z,4.50
2018-05-08T02:59:24.503Z,4.33
2018-05-08T03:01:52.765Z,5.50
2018-05-08T03:04:21.074Z,4.07
2018-05-08T03:06:48.595Z,4.10
2018-05-08T03:09:16.911Z,4.60
2018-05-08T03:11:44.420Z,4.80
2018-05-08T03:14:11.960Z,4.63
2018-05-08T03:16:39.588Z,5.00
2018-05-08T03:19:07.093Z,4.80
2018-05-08T03:21:34.605Z,4.73
2018-05-08T03:24:02.109Z,4.60
2018-05-08T03:26:29.619Z,4.80
2018-05-08T03:28:57.127Z,4.90
2018-05-08T03:31:24.657Z,5.10
2018-05-08T03:33:52.163Z,5.00
2018-05-08T03:36:20.453Z,5.17
2018-05-08T03:38:47.975Z,4.63
2018-05-08T03:41:15.555Z,5.73
2018-05-08T03:43:43.845Z,4.70
2018-05-08T03:46:12.247Z,4.50
2018-05-08T03:48:39.761Z,4.50
2018-05-08T03:51:08.053Z,4.87
2018-05-08T03:53:35.691Z,5.07
2018-05-08T03:56:03.983Z,5.40
2018-05-08T03:58:32.274Z,4.57
2018-05-08T04:01:11.649Z,4.73
2018-05-08T04:03:50.987Z,4.60
2018-05-08T04:09:17.632Z,5.40
2018-05-08T04:11:45.239Z,5.10
2018-05-08T04:14:13.552Z,5.63
2018-05-08T04:16:41.074Z,5.70
2018-05-08T04:19:09.359Z,5.87
2018-05-08T04:21:37.633Z,5.80
2018-05-08T04:24:05.947Z,5.60
2018-05-08T04:26:33.463Z,10.63
2018-05-08T04:29:01.768Z,5.70
2018-05-08T04:31:29.307Z,5.20
2018-05-08T04:33:57.595Z,6.00
2018-05-08T04:36:25.171Z,7.17
2018-05-08T04:38:52.697Z,6.93
2018-05-08T04:41:20.996Z,7.27
2018-05-08T04:43:48.536Z,6.53
2018-05-08T04:46:16.957Z,6.60
2018-05-08T04:48:44.473Z,6.77
2018-05-08T04:51:12.743Z,6.33
2018-05-08T04:53:41.050Z,5.73
2018-05-08T04:56:08.592Z,5.60
2018-05-08T04:58:36.123Z,5.73
2018-05-08T05:01:03.641Z,6.23
2018-05-08T05:03:31.213Z,6.80
2018-05-08T05:05:58.804Z,6.80
2018-05-08T05:08:26.354Z,6.33
2018-05-08T05:10:53.856Z,6.23
2018-05-08T05:13:21.383Z,6.90
2018-05-08T05:15:49.697Z,6.53
2018-05-08T05:18:17.262Z,6.53
2018-05-08T05:20:44.922Z,7.20
2018-05-08T05:23:12.463Z,6.30
2018-05-08T05:25:40.054Z,5.07
2018-05-08T05:28:07.574Z,5.43
2018-05-08T05:30:35.128Z,4.77
2018-05-08T05:33:03.476Z,5.20
2018-05-08T05:35:30.996Z,5.00
2018-05-08T05:37:58.532Z,4.97
2018-05-08T05:40:26.073Z,5.40
2018-05-08T05:42:54.393Z,4.37
2018-05-08T05:45:21.913Z,5.20
2018-05-08T05:47:50.213Z,4.50
2018-05-08T05:50:17.722Z,4.33
2018-05-08T05:52:45.325Z,5.10
2018-05-08T05:55:12.860Z,4.40
2018-05-08T05:57:41.165Z,4.87
2018-05-08T06:00:08.770Z,4.23
2018-05-08T06:02:37.019Z,4.03
2018-05-08T06:05:04.541Z,3.73
2018-05-08T06:07:32.826Z,4.00
2018-05-08T06:10:00.385Z,3.73
2018-05-08T06:12:27.898Z,3.80
2018-05-08T06:14:55.410Z,3.83
2018-05-08T06:17:22.989Z,3.80
2018-05-08T06:19:50.529Z,4.10
2018-05-08T06:22:18.051Z,4.10
2018-05-08T06:24:45.652Z,4.20
2018-05-08T06:27:13.226Z,4.10
2018-05-08T06:29:40.826Z,3.97
2018-05-08T06:32:08.370Z,3.90
2018-05-08T06:34:35.877Z,4.50
2018-05-08T06:37:03.446Z,3.57
2018-05-08T06:39:31.031Z,3.63
2018-05-08T06:41:59.259Z,3.40
2018-05-08T06:44:27.578Z,3.30
2018-05-08T06:46:55.098Z,3.40
2018-05-08T06:49:22.617Z,3.53
2018-05-08T06:51:50.147Z,3.50
2018-05-08T06:54:17.713Z,3.17
2018-05-08T06:56:45.230Z,3.20
2018-05-08T06:59:13.729Z,3.57
2018-05-08T07:01:41.277Z,3.10
2018-05-08T07:04:08.792Z,3.33
2018-05-08T07:06:36.329Z,5.10
2018-05-08T07:09:03.849Z,5.80
2018-05-08T07:11:31.393Z,3.10
2018-05-08T07:13:59.703Z,3.30
2018-05-08T07:16:27.234Z,2.50
2018-05-08T07:18:55.519Z,2.57
2018-05-08T07:21:23.072Z,3.60
2018-05-08T07:23:51.402Z,2.80
2018-05-08T07:26:18.975Z,3.00
2018-05-08T07:28:46.480Z,3.50
2018-05-08T07:31:13.995Z,3.27
2018-05-08T07:33:43.841Z,3.83
2018-05-08T07:36:11.364Z,4.33
2018-05-08T07:38:40.277Z,3.37
2018-05-08T07:41:07.806Z,4.10
2018-05-08T07:43:35.341Z,3.70
2018-05-08T07:46:02.869Z,3.80
2018-05-08T07:48:30.402Z,3.93
2018-05-08T07:50:58.698Z,4.57
2018-05-08T07:53:26.316Z,3.57
2018-05-08T07:55:53.852Z,4.10
2018-05-08T07:58:21.395Z,3.90
2018-05-08T08:00:48.929Z,4.47
2018-05-08T08:03:17.408Z,3.70
2018-05-08T08:05:44.875Z,3.17
2018-05-08T08:08:12.403Z,3.50
2018-05-08T08:10:39.972Z,3.17
2018-05-08T08:13:08.350Z,2.93
2018-05-08T08:15:36.684Z,3.17
2018-05-08T08:18:04.218Z,2.73
2018-05-08T08:20:32.053Z,2.80
2018-05-08T08:23:00.328Z,3.00
2018-05-08T08:25:28.603Z,3.13
2018-05-08T08:27:56.893Z,2.77
2018-05-08T08:30:25.171Z,3.47
2018-05-08T08:32:53.497Z,3.40
2018-05-08T08:35:21.014Z,2.97
2018-05-08T08:37:48.530Z,2.87
2018-05-08T08:40:16.064Z,3.30
2018-05-08T08:42:43.608Z,4.10
2018-05-08T08:45:11.121Z,3.97
2018-05-08T08:47:39.504Z,3.10
2018-05-08T08:50:07.099Z,3.53
2018-05-08T08:52:34.663Z,4.20
2018-05-08T08:55:02.211Z,3.17
2018-05-08T08:57:29.716Z,3.17
2018-05-08T08:59:57.252Z,5.90
2018-05-08T09:02:24.758Z,4.10
2018-05-08T09:04:52.304Z,4.43
2018-05-08T09:07:19.820Z,5.00
2018-05-08T09:09:47.336Z,6.70
2018-05-08T09:12:15.652Z,4.10
2018-05-08T09:14:43.191Z,4.27
2018-05-08T09:17:10.713Z,3.77
2018-05-08T09:19:38.291Z,3.70
2018-05-08T09:22:06.590Z,4.07
2018-05-08T09:24:34.153Z,4.70
2018-05-08T09:27:01.815Z,3.90
2018-05-08T09:29:29.332Z,3.23
2018-05-08T09:31:56.946Z,3.30
2018-05-08T09:34:24.473Z,3.50
2018-05-08T09:36:52.764Z,3.87
2018-05-08T09:39:20.288Z,3.97
2018-05-08T09:41:47.802Z,3.10
2018-05-08T09:44:15.372Z,3.33
2018-05-08T09:46:43.011Z,3.23
2018-05-08T09:49:10.669Z,3.27
2018-05-08T09:51:38.124Z,6.00
2018-05-08T09:54:05.708Z,5.00
2018-05-08T09:56:33.216Z,3.37
2018-05-08T09:59:01.519Z,5.83
2018-05-08T10:01:29.069Z,3.40
2018-05-08T10:03:56.583Z,3.27
2018-05-08T10:06:24.146Z,4.03
2018-05-08T10:08:51.668Z,4.13
2018-05-08T10:11:19.229Z,3.73
2018-05-08T10:13:46.778Z,3.20
2018-05-08T10:16:14.345Z,3.00
2018-05-08T10:18:41.886Z,3.53
2018-05-08T10:21:09.459Z,3.10
2018-05-08T10:23:37.068Z,3.17
2018-05-08T10:26:05.367Z,3.20
2018-05-08T10:28:32.909Z,3.30
2018-05-08T10:31:01.206Z,3.73
2018-05-08T10:33:28.744Z,2.80
2018-05-08T10:35:57.023Z,2.83
2018-05-08T10:38:25.308Z,3.27
2018-05-08T10:40:53.616Z,3.00
2018-05-08T10:43:21.179Z,3.23
2018-05-08T10:45:49.379Z,3.20
2018-05-08T10:48:16.884Z,3.07
2018-05-08T10:50:44.397Z,3.67
2018-05-08T10:53:11.967Z,3.00
2018-05-08T10:55:39.566Z,2.63
2018-05-08T10:58:07.862Z,2.93
2018-05-08T11:00:35.423Z,2.70
2018-05-08T11:03:04.246Z,2.63
2018-05-08T11:05:32.543Z,2.83
2018-05-08T11:08:00.811Z,2.40
2018-05-08T11:10:28.348Z,2.50
2018-05-08T11:12:55.907Z,2.60
2018-05-08T11:15:23.443Z,2.00
2018-05-08T11:17:50.948Z,2.50
2018-05-08T11:20:19.904Z,2.67
2018-05-08T11:22:48.243Z,2.30
2018-05-08T11:25:15.803Z,2.20
2018-05-08T11:27:43.329Z,2.40
2018-05-08T11:30:12.058Z,3.23
2018-05-08T11:32:39.617Z,2.80
2018-05-08T11:35:07.149Z,2.67
2018-05-08T11:37:35.467Z,2.43
2018-05-08T11:40:02.986Z,2.50
2018-05-08T11:42:31.276Z,2.50
2018-05-08T11:44:58.801Z,2.87
2018-05-08T11:47:26.355Z,2.30
2018-05-08T11:49:53.956Z,3.87
2018-05-08T11:52:21.442Z,2.50
2018-05-08T11:54:49.087Z,2.40
2018-05-08T11:57:16.584Z,2.50
2018-05-08T11:59:44.099Z,2.50
2018-05-08T12:02:11.620Z,3.37
2018-05-08T12:04:39.156Z,2.73
2018-05-08T12:07:06.669Z,2.30
2018-05-08T12:09:34.264Z,2.50
2018-05-08T12:12:01.795Z,2.30
2018-05-08T12:14:29.424Z,2.60
2018-05-08T12:16:56.919Z,2.87
2018-05-08T12:19:24.443Z,2.67
2018-05-08T12:21:52.787Z,3.33
2018-05-08T12:24:20.300Z,2.70
2018-05-08T12:26:47.858Z,2.00
2018-05-08T12:29:15.380Z,3.40
2018-05-08T12:31:42.896Z,3.67
2018-05-08T12:34:10.424Z,2.23
2018-05-08T12:36:37.944Z,2.73
2018-05-08T12:39:05.465Z,2.83
2018-05-08T12:41:33.015Z,4.20
2018-05-08T12:44:00.617Z,4.03
2018-05-08T12:46:28.138Z,3.17
2018-05-08T12:48:55.644Z,2.20
2018-05-08T12:51:23.194Z,2.53
2018-05-08T12:53:50.813Z,2.50
2018-05-08T12:56:18.351Z,2.90
2018-05-08T12:58:45.883Z,3.40
2018-05-08T13:01:14.177Z,2.93
2018-05-08T13:03:42.496Z,3.40
2018-05-08T13:06:10.010Z,4.13
2018-05-08T13:08:37.596Z,2.93
2018-05-08T13:11:06.077Z,5.90
2018-05-08T13:13:33.570Z,4.07
2018-05-08T13:16:01.092Z,3.73
2018-05-08T13:18:28.614Z,3.27
2018-05-08T13:20:56.913Z,3.30
2018-05-08T13:23:24.420Z,2.90
2018-05-08T13:25:51.955Z,3.20
2018-05-08T13:28:19.491Z,3.83
2018-05-08T13:30:47.028Z,3.30
2018-05-08T13:33:15.307Z,3.33
2018-05-08T13:35:42.876Z,3.53
2018-05-08T13:38:11.210Z,3.37
2018-05-08T13:40:38.764Z,2.90
2018-05-08T13:43:06.289Z,2.90
2018-05-08T13:45:33.868Z,3.10
2018-05-08T13:48:01.402Z,2.80
2018-05-08T13:50:28.920Z,3.13
2018-05-08T13:52:56.468Z,2.80
2018-05-08T13:55:23.998Z,3.10
2018-05-08T13:57:51.534Z,3.03
2018-05-08T14:00:19.056Z,3.10
2018-05-08T14:02:46.590Z,3.47
2018-05-08T14:05:14.115Z,3.30
2018-05-08T14:07:41.649Z,3.10
2018-05-08T14:10:09.157Z,3.27
2018-05-08T14:12:36.713Z,3.20
2018-05-08T14:15:04.225Z,3.20
2018-05-08T14:17:32.500Z,3.33
2018-05-08T14:20:00.849Z,3.27
2018-05-08T14:22:28.360Z,3.63
2018-05-08T14:24:55.964Z,3.50
2018-05-08T14:27:23.580Z,3.80
2018-05-08T14:29:51.137Z,3.57
2018-05-08T14:32:18.680Z,3.30
2018-05-08T14:34:46.248Z,4.10
2018-05-08T14:37:13.759Z,3.70
2018-05-08T14:39:41.317Z,3.30
2018-05-08T14:42:08.901Z,3.87
2018-05-08T14:44:37.198Z,3.67
2018-05-08T14:47:04.761Z,3.70
2018-05-08T14:49:32.423Z,3.77
2018-05-08T14:51:59.895Z,3.40
2018-05-08T14:54:27.415Z,3.57
2018-05-08T14:56:55.807Z,3.60
2018-05-08T14:59:23.332Z,3.70
2018-05-08T15:01:50.858Z,3.60
2018-05-08T15:04:18.430Z,3.70
2018-05-08T15:06:45.978Z,3.43
2018-05-08T15:09:13.543Z,3.60
2018-05-08T15:11:41.906Z,3.80
2018-05-08T15:14:09.371Z,4.13
2018-05-08T15:16:36.957Z,3.63
2018-05-08T15:19:04.548Z,3.73
2018-05-08T15:21:32.827Z,3.77
2018-05-08T15:24:01.102Z,4.27
2018-05-08T15:26:29.420Z,3.40
2018-05-08T15:28:56.983Z,3.53
2018-05-08T15:31:24.552Z,4.17
2018-05-08T15:33:52.116Z,3.80
2018-05-08T15:36:19.660Z,4.10
2018-05-08T15:38:47.173Z,3.90
2018-05-08T15:41:15.562Z,3.53
2018-05-08T15:43:43.115Z,3.67
2018-05-08T15:46:10.690Z,3.70
2018-05-08T15:48:38.212Z,3.73
2018-05-08T15:51:06.591Z,3.83
2018-05-08T15:53:34.893Z,4.37
2018-05-08T15:56:02.403Z,3.90
2018-05-08T15:58:29.964Z,3.83
2018-05-08T16:00:57.499Z,3.80
2018-05-08T16:03:25.037Z,3.70
2018-05-08T16:05:52.556Z,3.80
2018-05-08T16:08:21.705Z,4.03
2018-05-08T16:10:49.228Z,4.20
2018-05-08T16:13:18.296Z,3.97
2018-05-08T16:15:45.842Z,4.67
2018-05-08T16:18:13.358Z,4.57
2018-05-08T16:20:40.918Z,4.40
2018-05-08T16:23:08.438Z,4.40
2018-05-08T16:25:35.998Z,4.30
2018-05-08T16:28:03.506Z,4.70
2018-05-08T16:30:31.971Z,4.53
2018-05-08T16:32:59.456Z,4.50
2018-05-08T16:35:27.138Z,4.00
2018-05-08T16:37:54.779Z,4.37
2018-05-08T16:40:23.301Z,4.40
2018-05-08T16:42:50.889Z,4.53
2018-05-08T16:45:18.457Z,4.80
2018-05-08T16:47:46.110Z,4.60
2018-05-08T16:50:13.684Z,4.30
2018-05-08T16:52:41.206Z,4.80
2018-05-08T16:55:09.517Z,4.40
2018-05-08T16:57:37.073Z,4.80
2018-05-08T17:00:04.647Z,4.43
2018-05-08T17:02:32.206Z,4.30
2018-05-08T17:04:59.725Z,4.40
2018-05-08T17:07:28.055Z,4.23
2018-05-08T17:09:55.798Z,4.80
2018-05-08T17:12:23.334Z,4.60
2018-05-08T17:14:50.862Z,4.47
2018-05-08T17:17:18.458Z,4.83
2018-05-08T17:19:46.146Z,4.20
2018-05-08T17:22:13.737Z,4.50
2018-05-08T17:24:41.337Z,4.00
2018-05-08T17:27:08.912Z,4.60
2018-05-08T17:29:36.463Z,4.50
2018-05-08T17:32:04.060Z,4.20
2018-05-08T17:34:31.634Z,4.33
2018-05-08T17:36:59.156Z,4.10
2018-05-08T17:39:26.754Z,4.20
2018-05-08T17:41:54.287Z,4.27
2018-05-08T17:44:21.879Z,4.00
2018-05-08T17:46:49.445Z,4.33
2018-05-08T17:49:17.806Z,4.10
2018-05-08T17:51:46.154Z,4.83
2018-05-08T17:54:13.754Z,4.33
2018-05-08T17:56:41.319Z,4.50
2018-05-08T17:59:09.137Z,4.43
2018-05-08T18:01:36.718Z,4.60
2018-05-08T18:04:04.535Z,4.30
2018-05-08T18:06:32.032Z,4.67
2018-05-08T18:08:59.580Z,4.60
2018-05-08T18:11:27.256Z,4.87
2018-05-08T18:13:55.540Z,4.53
2018-05-08T18:16:23.129Z,4.50
2018-05-08T18:18:51.473Z,5.00
2018-05-08T18:21:19.102Z,4.73
2018-05-08T18:23:46.674Z,4.80
2018-05-08T18:26:14.316Z,4.60
2018-05-08T18:28:41.876Z,5.13
2018-05-08T18:31:09.478Z,4.87
2018-05-08T18:33:37.077Z,4.73
2018-05-08T18:36:04.659Z,4.50
2018-05-08T18:38:32.214Z,4.93
2018-05-08T18:40:59.757Z,5.43
2018-05-08T18:43:27.335Z,4.90
2018-05-08T18:45:54.954Z,5.37
2018-05-08T18:48:22.502Z,5.23
2018-05-08T18:50:50.143Z,5.00
2018-05-08T18:53:17.946Z,5.03
2018-05-08T18:55:46.291Z,5.23
2018-05-08T18:58:13.850Z,5.00
2018-05-08T19:00:47.189Z,5.17
2018-05-08T19:03:15.518Z,5.03
2018-05-08T19:05:43.078Z,5.90
2018-05-08T19:08:10.613Z,5.97
2018-05-08T19:10:38.168Z,5.87
2018-05-08T19:13:05.731Z,5.33
2018-05-08T19:15:38.911Z,4.80
2018-05-08T19:18:06.484Z,5.07
2018-05-08T19:20:34.130Z,4.97
2018-05-08T19:23:01.700Z,5.20
2018-05-08T19:25:29.367Z,5.50
2018-05-08T19:28:02.531Z,5.33
2018-05-08T19:30:30.082Z,5.00
2018-05-08T19:32:58.424Z,4.90
2018-05-08T19:35:31.686Z,4.83
2018-05-08T19:38:04.061Z,5.00
2018-05-08T19:40:31.603Z,5.33
2018-05-08T19:42:59.431Z,5.33
2018-05-08T19:45:27.003Z,5.17
2018-05-08T19:47:55.335Z,4.60
2018-05-08T19:50:22.919Z,6.40
2018-05-08T19:52:50.445Z,5.37
2018-05-08T19:55:18.069Z,5.00
2018-05-08T19:57:45.637Z,5.40
2018-05-08T20:00:13.282Z,4.93
2018-05-08T20:02:40.868Z,5.13
2018-05-08T20:05:08.441Z,5.20
2018-05-08T20:07:36.064Z,4.90
2018-05-08T20:10:04.378Z,5.53
2018-05-08T20:12:31.924Z,5.20
2018-05-08T20:14:59.647Z,4.93
2018-05-08T20:17:27.997Z,5.53
2018-05-08T20:19:55.538Z,5.30
2018-05-08T20:22:23.107Z,5.43
2018-05-08T20:24:50.662Z,5.57
2018-05-08T20:27:18.201Z,4.80
2018-05-08T20:29:45.779Z,5.30
2018-05-08T20:32:13.345Z,5.70
2018-05-08T20:34:40.889Z,5.07
2018-05-08T20:37:08.516Z,5.20
2018-05-08T20:39:36.092Z,5.20
2018-05-08T20:42:03.654Z,5.13
2018-05-08T20:44:31.273Z,5.23
2018-05-08T20:46:59.624Z,4.83
2018-05-08T20:49:27.151Z,5.20
2018-05-08T20:51:54.994Z,4.10
2018-05-08T20:54:23.286Z,3.83
2018-05-08T20:56:50.853Z,4.70
2018-05-08T20:59:18.380Z,4.13
2018-05-08T21:01:46.765Z,4.57
2018-05-08T21:04:15.038Z,4.50
2018-05-08T21:06:43.412Z,4.80
2018-05-08T21:09:11.004Z,4.80
2018-05-08T21:11:38.565Z,4.50
2018-05-08T21:14:06.166Z,4.40
2018-05-08T21:16:33.710Z,4.00
2018-05-08T21:19:01.283Z,4.43
2018-05-08T21:21:28.813Z,4.90
2018-05-08T21:23:56.367Z,4.33
2018-05-08T21:26:23.918Z,4.20
2018-05-08T21:28:57.110Z,4.33
2018-05-08T21:31:24.644Z,4.50
2018-05-08T21:33:52.945Z,4.20
2018-05-08T21:36:20.478Z,3.87
2018-05-08T21:38:48.038Z,4.50
2018-05-08T21:41:16.357Z,4.17
2018-05-08T21:43:43.901Z,4.33
2018-05-08T21:46:11.484Z,4.20
2018-05-08T21:48:39.022Z,3.80
2018-05-08T21:51:06.546Z,4.13
2018-05-08T21:53:34.901Z,3.97
2018-05-08T21:56:02.432Z,4.60
2018-05-08T21:58:29.973Z,4.30
2018-05-08T22:00:57.548Z,3.90
2018-05-08T22:03:25.053Z,4.60
2018-05-08T22:05:53.367Z,4.30
2018-05-08T22:08:20.881Z,4.03
2018-05-08T22:10:49.198Z,4.07
2018-05-08T22:13:16.731Z,3.93
2018-05-08T22:15:45.016Z,4.07
2018-05-08T22:18:12.538Z,3.90
2018-05-08T22:20:40.149Z,4.30
2018-05-08T22:23:07.702Z,3.97
2018-05-08T22:25:35.219Z,4.60
2018-05-08T22:28:03.515Z,3.97
2018-05-08T22:30:32.111Z,4.63
2018-05-08T22:32:59.633Z,4.47
2018-05-08T22:35:27.158Z,4.00
2018-05-08T22:37:54.690Z,5.20
2018-05-08T22:40:22.278Z,4.57
2018-05-08T22:42:49.851Z,4.80
2018-05-08T22:45:17.389Z,4.73
2018-05-08T22:47:44.947Z,4.77
2018-05-08T22:50:12.477Z,4.60
2018-05-08T22:52:39.989Z,4.60
2018-05-08T22:55:07.537Z,4.70
2018-05-08T22:57:35.054Z,5.00
2018-05-08T23:00:02.613Z,4.70
2018-05-08T23:02:30.156Z,4.50
2018-05-08T23:04:58.475Z,4.80
2018-05-08T23:07:26.009Z,4.33
2018-05-08T23:09:53.555Z,4.60
2018-05-08T23:12:21.899Z,4.50
2018-05-08T23:14:49.419Z,4.90
2018-05-08T23:17:17.020Z,5.00
2018-05-08T23:19:44.569Z,4.70
2018-05-08T23:22:12.110Z,4.97
2018-05-08T23:24:39.616Z,4.93
2018-05-08T23:27:07.918Z,4.83
2018-05-08T23:29:35.447Z,5.30
2018-05-08T23:32:03.761Z,5.40
2018-05-08T23:34:31.290Z,5.80
2018-05-08T23:36:59.629Z,5.60
2018-05-08T23:39:27.185Z,5.77
2018-05-08T23:41:54.707Z,5.73
2018-05-08T23:44:22.240Z,6.43
2018-05-08T23:46:51.993Z,5.93
2018-05-08T23:49:19.552Z,5.80
2018-05-08T23:51:47.060Z,6.13
2018-05-08T23:54:15.482Z,6.33
2018-05-08T23:56:43.008Z,5.90
2018-05-08T23:59:11.325Z,6.27
